Airfield :
LOGIN :

Register | Disclaimer

   EN    FR    IT 

 










Legend :    VFR   Marginal VFR   IFR   Intensive IFR   Very Intensive IFR
Visi :
Ceiling :
>= 8 km
>= 3000ft
5 to 8 km
1000 to 3000 ft
1500m to 5 km
500 to 1000 ft
800 to 1500m
200 to 500 ft
< 800m
< 200 ft
Symbols :   Thunderstorms  Fog  Heavy snow  Heavy precipitations  Wind > 20 kt
SIGMETs :     Misc.  Thunderstorms  Icing  Turbulence  Mountain Waves  Volcanic Ashes







- Airport Elevation : 935 ft


EBFS - Florennes

CURRENT METAR :
  • 220825Z 05011KT 7000 SKC M03/M06 Q1020 WHT WHT BECMG BLU

EXPIRED METARs :
  • 220810Z 05011KT 7000 FEW180 M03/M06 Q1020 WHT WHT BECMG BLU
  • 220755Z 04011KT 6000 FEW180 M03/M06 Q1020 WHT WHT
  • 220748Z 04011KT 5000 BR FEW180 M04/M06 Q1020 WHT WHT
  • 220725Z 04011KT 4500 BR FEW180 M04/M06 Q1020 GRN GRN BECMG WHT
  • 220655Z 04009KT 4000 BR FEW180 M04/M06 Q1020 GRN GRN BECMG WHT
  • 220648Z 04010KT 4000 BR FEW180 M04/M06 Q1020 GRN GRN BECMG WHT
  • 220625Z 04010KT 4000 BR FEW180 M04/M06 Q1020 GRN GRN TEMPO YLO
  • 220610Z 04009KT 4500 BR FEW180 M04/M06 Q1020 GRN GRN TEMPO YLO
  • 220555Z 04010KT 5000 BR FEW180 M04/M07 Q1020 WHT WHT TEMPO GRN

TAF TAF EBFS
Valid from the 22 at 07:00 until the 22 at 16:00 UTC


220541Z 2207/2216 04010G20KT 6000 SKC
PROB30
TEMPO 2207/2210 3000 BR
BECMG 2210/2212 06015G25KT 9999 FEW025
No reported NOTAMs for that airfield.
1 SIGMET reported for the Brussels FIR (EBBU) :
 
Severe turbulence
EBBU SIGMET 03 VALID 220800/221200 EBBR
EBBU BRUSSELS FIR SEV TURB FCST E OF E00315 FL170/250 MOV W 20KT WKN=



MET'MAP, your aeronautical weather chart ! - Copyright ORBIFLY December 2007 - Disclaimer

ORBIFLY MET'MAP TEAM :

Programming & Development : Alexandra Zaïnal
Concept & Development : Baudouin d'Aumeries
Co-Development & Prog : Marc-Olivier Méhu
Technical & hardware support : Manuel Goepfert

Contact : metmap@orbifly.com




SOURCES & CREDITS :

   NOAA